Terminal Aerodrome Forecast
Issued by NWS Omaha/Valley, NE

Home | Current Version | Previous Version | Text Only | Print | Product List | Glossary Off
Versions: 1 2 3 4 5 6 7 8 9 10 11 12 13 14 15 16 17 18 19 20 21 22 23 24 25 26 27 28 29 30 31 32

000
FTUS43 KOAX 292031 AAB
TAFOFK
TAF AMD
KOFK 292031Z 2921/3018 29016KT P6SM VCSH BKN030 BKN060 OVC100
     FM292200 33017G24KT P6SM BKN030
     FM300400 34014G21KT P6SM BKN060 BKN250
     FM301300 34012KT P6SM SKC=

USA.gov is the U.S. government's official web portal to all federal, state and local government web resources and services.